sensor_id;sensor_type;location;lat;lon;timestamp;pressure;altitude;pressure_sealevel;temperature;humidity
78337;BME280;67610;51.588;7.002;2023-06-14T00:00:17;100655.91;;;21.25;33.27
78337;BME280;67610;51.588;7.002;2023-06-14T00:02:42;100656.38;;;21.22;32.93
78337;BME280;67610;51.588;7.002;2023-06-14T00:05:08;100653.09;;;21.20;32.89
78337;BME280;67610;51.588;7.002;2023-06-14T00:07:38;100663.63;;;21.15;33.01
78337;BME280;67610;51.588;7.002;2023-06-14T00:10:08;100659.72;;;21.18;33.29
78337;BME280;67610;51.588;7.002;2023-06-14T00:12:34;100661.81;;;21.09;33.12
78337;BME280;67610;51.588;7.002;2023-06-14T00:15:00;100662.44;;;21.11;32.98
78337;BME280;67610;51.588;7.002;2023-06-14T00:17:29;100668.47;;;21.07;32.95
78337;BME280;67610;51.588;7.002;2023-06-14T00:19:56;100661.84;;;21.03;32.87
78337;BME280;67610;51.588;7.002;2023-06-14T00:22:22;100666.59;;;21.01;32.86
78337;BME280;67610;51.588;7.002;2023-06-14T00:24:50;100667.03;;;20.98;32.96
78337;BME280;67610;51.588;7.002;2023-06-14T00:27:15;100675.13;;;20.91;33.03
78337;BME280;67610;51.588;7.002;2023-06-14T00:29:41;100670.22;;;20.88;32.94
78337;BME280;67610;51.588;7.002;2023-06-14T00:32:06;100670.66;;;20.85;33.10
78337;BME280;67610;51.588;7.002;2023-06-14T00:34:32;100670.25;;;20.81;32.96
78337;BME280;67610;51.588;7.002;2023-06-14T00:36:58;100670.25;;;20.81;32.85
78337;BME280;67610;51.588;7.002;2023-06-14T00:39:23;100676.47;;;20.75;33.25
78337;BME280;67610;51.588;7.002;2023-06-14T00:41:49;100681.44;;;20.72;32.91
78337;BME280;67610;51.588;7.002;2023-06-14T00:44:16;100681.03;;;20.68;32.91
78337;BME280;67610;51.588;7.002;2023-06-14T00:46:41;100676.53;;;20.69;32.80
78337;BME280;67610;51.588;7.002;2023-06-14T00:49:08;100671.19;;;20.69;32.72
78337;BME280;67610;51.588;7.002;2023-06-14T00:51:33;100687.69;;;20.59;33.21
78337;BME280;67610;51.588;7.002;2023-06-14T00:53:59;100689.53;;;20.59;32.92
78337;BME280;67610;51.588;7.002;2023-06-14T00:56:24;100681.78;;;20.51;33.26
78337;BME280;67610;51.588;7.002;2023-06-14T00:58:50;100688.56;;;20.53;33.09
78337;BME280;67610;51.588;7.002;2023-06-14T01:01:17;100686.03;;;20.58;32.84
78337;BME280;67610;51.588;7.002;2023-06-14T01:03:42;100690.59;;;20.58;32.90
78337;BME280;67610;51.588;7.002;2023-06-14T01:09:13;100687.72;;;20.53;32.99
78337;BME280;67610;51.588;7.002;2023-06-14T01:12:00;100693.53;;;20.43;33.25
78337;BME280;67610;51.588;7.002;2023-06-14T01:14:27;100699.28;;;20.40;33.15
78337;BME280;67610;51.588;7.002;2023-06-14T01:16:54;100695.19;;;20.38;33.17
78337;BME280;67610;51.588;7.002;2023-06-14T01:19:20;100692.38;;;20.33;33.14
78337;BME280;67610;51.588;7.002;2023-06-14T01:21:47;100698.56;;;20.27;33.48
78337;BME280;67610;51.588;7.002;2023-06-14T01:24:16;100697.94;;;20.25;33.46
78337;BME280;67610;51.588;7.002;2023-06-14T01:26:41;100693.03;;;20.22;33.50
78337;BME280;67610;51.588;7.002;2023-06-14T01:29:12;100698.19;;;20.16;33.71
78337;BME280;67610;51.588;7.002;2023-06-14T01:31:42;100702.09;;;20.14;33.66
78337;BME280;67610;51.588;7.002;2023-06-14T01:34:09;100689.16;;;20.11;33.77
78337;BME280;67610;51.588;7.002;2023-06-14T01:36:36;100692.88;;;20.03;33.97
78337;BME280;67610;51.588;7.002;2023-06-14T01:39:03;100693.47;;;20.05;33.89
78337;BME280;67610;51.588;7.002;2023-06-14T01:41:31;100686.91;;;20.01;34.00
78337;BME280;67610;51.588;7.002;2023-06-14T01:43:57;100693.13;;;19.95;34.26
78337;BME280;67610;51.588;7.002;2023-06-14T01:46:23;100693.72;;;19.97;34.25
78337;BME280;67610;51.588;7.002;2023-06-14T01:48:49;100693.13;;;19.95;34.09
78337;BME280;67610;51.588;7.002;2023-06-14T01:51:14;100695.81;;;19.89;34.36
78337;BME280;67610;51.588;7.002;2023-06-14T01:53:40;100696.22;;;19.86;34.53
78337;BME280;67610;51.588;7.002;2023-06-14T01:56:06;100693.78;;;19.71;34.80
78337;BME280;67610;51.588;7.002;2023-06-14T01:58:31;100695.84;;;19.69;34.97
78337;BME280;67610;51.588;7.002;2023-06-14T02:00:57;100687.88;;;19.63;34.55
78337;BME280;67610;51.588;7.002;2023-06-14T02:03:23;100681.50;;;19.57;34.98
78337;BME280;67610;51.588;7.002;2023-06-14T02:05:49;100685.84;;;19.58;34.99
78337;BME280;67610;51.588;7.002;2023-06-14T02:08:14;100683.78;;;19.54;34.90
78337;BME280;67610;51.588;7.002;2023-06-14T02:10:40;100685.63;;;19.53;34.93
78337;BME280;67610;51.588;7.002;2023-06-14T02:13:05;100686.66;;;19.52;35.06
78337;BME280;67610;51.588;7.002;2023-06-14T02:15:30;100688.31;;;19.53;35.19
78337;BME280;67610;51.588;7.002;2023-06-14T02:17:59;100693.44;;;19.48;35.29
78337;BME280;67610;51.588;7.002;2023-06-14T02:20:25;100687.28;;;19.41;35.24
78337;BME280;67610;51.588;7.002;2023-06-14T02:22:50;100690.41;;;19.38;35.30
78337;BME280;67610;51.588;7.002;2023-06-14T02:25:16;100686.44;;;19.34;35.64
78337;BME280;67610;51.588;7.002;2023-06-14T02:27:41;100691.56;;;19.29;35.45
78337;BME280;67610;51.588;7.002;2023-06-14T02:30:07;100692.22;;;19.31;35.30
78337;BME280;67610;51.588;7.002;2023-06-14T02:32:33;100697.34;;;19.32;35.33
78337;BME280;67610;51.588;7.002;2023-06-14T02:35:01;100702.66;;;19.26;35.98
78337;BME280;67610;51.588;7.002;2023-06-14T02:37:27;100703.28;;;19.21;35.59
78337;BME280;67610;51.588;7.002;2023-06-14T02:39:52;100702.88;;;19.18;35.77
78337;BME280;67610;51.588;7.002;2023-06-14T02:42:18;100703.88;;;19.10;36.10
78337;BME280;67610;51.588;7.002;2023-06-14T02:44:43;100703.09;;;19.03;35.90
78337;BME280;67610;51.588;7.002;2023-06-14T02:47:10;100699.59;;;19.03;36.10
78337;BME280;67610;51.588;7.002;2023-06-14T02:49:35;100702.66;;;19.00;36.33
78337;BME280;67610;51.588;7.002;2023-06-14T02:52:01;100702.06;;;18.98;36.39
78337;BME280;67610;51.588;7.002;2023-06-14T02:54:27;100699.16;;;19.06;36.09
78337;BME280;67610;51.588;7.002;2023-06-14T02:56:53;100704.72;;;18.98;36.16
78337;BME280;67610;51.588;7.002;2023-06-14T02:59:18;100709.84;;;18.99;35.71
78337;BME280;67610;51.588;7.002;2023-06-14T03:01:44;100714.34;;;18.99;35.89
78337;BME280;67610;51.588;7.002;2023-06-14T03:04:10;100712.72;;;18.98;36.30
78337;BME280;67610;51.588;7.002;2023-06-14T03:06:36;100720.94;;;18.96;36.29
78337;BME280;67610;51.588;7.002;2023-06-14T03:09:02;100720.28;;;18.94;36.24
78337;BME280;67610;51.588;7.002;2023-06-14T03:11:31;100731.97;;;18.93;36.72
78337;BME280;67610;51.588;7.002;2023-06-14T03:13:57;100733.22;;;18.91;36.56
78337;BME280;67610;51.588;7.002;2023-06-14T03:16:22;100733.00;;;18.92;36.35
78337;BME280;67610;51.588;7.002;2023-06-14T03:18:52;100740.59;;;18.89;36.62
78337;BME280;67610;51.588;7.002;2023-06-14T03:21:21;100734.22;;;18.90;36.56
78337;BME280;67610;51.588;7.002;2023-06-14T03:23:47;100737.72;;;18.90;36.43
78337;BME280;67610;51.588;7.002;2023-06-14T03:26:14;100734.22;;;18.90;36.44
78337;BME280;67610;51.588;7.002;2023-06-14T03:28:46;100741.00;;;18.86;36.81
78337;BME280;67610;51.588;7.002;2023-06-14T03:31:12;100746.94;;;18.81;36.78
78337;BME280;67610;51.588;7.002;2023-06-14T03:33:38;100744.25;;;18.81;36.70
78337;BME280;67610;51.588;7.002;2023-06-14T03:36:05;100747.53;;;18.83;36.75
78337;BME280;67610;51.588;7.002;2023-06-14T03:38:30;100759.03;;;18.77;36.85
78337;BME280;67610;51.588;7.002;2023-06-14T03:40:56;100756.56;;;18.75;36.81
78337;BME280;67610;51.588;7.002;2023-06-14T03:43:21;100763.97;;;18.80;36.69
78337;BME280;67610;51.588;7.002;2023-06-14T03:45:47;100760.47;;;18.79;36.97
78337;BME280;67610;51.588;7.002;2023-06-14T03:48:12;100768.63;;;18.71;37.15
78337;BME280;67610;51.588;7.002;2023-06-14T03:50:37;100768.00;;;18.69;37.42
78337;BME280;67610;51.588;7.002;2023-06-14T03:53:08;100769.47;;;18.72;37.20
78337;BME280;67610;51.588;7.002;2023-06-14T03:55:33;100763.06;;;18.66;37.31
78337;BME280;67610;51.588;7.002;2023-06-14T03:57:59;100771.06;;;18.66;37.75
78337;BME280;67610;51.588;7.002;2023-06-14T04:00:25;100766.56;;;18.67;37.53
78337;BME280;67610;51.588;7.002;2023-06-14T04:02:53;100776.41;;;18.66;37.45
78337;BME280;67610;51.588;7.002;2023-06-14T04:05:19;100773.78;;;18.73;37.45
78337;BME280;67610;51.588;7.002;2023-06-14T04:07:46;100783.22;;;18.75;37.66
78337;BME280;67610;51.588;7.002;2023-06-14T04:10:14;100786.88;;;18.74;37.38
78337;BME280;67610;51.588;7.002;2023-06-14T04:12:40;100788.75;;;18.80;37.87
78337;BME280;67610;51.588;7.002;2023-06-14T04:15:06;100787.94;;;18.80;37.41
78337;BME280;67610;51.588;7.002;2023-06-14T04:17:33;100798.41;;;18.88;37.42
78337;BME280;67610;51.588;7.002;2023-06-14T04:19:59;100795.53;;;18.90;37.59
78337;BME280;67610;51.588;7.002;2023-06-14T04:22:25;100795.56;;;18.96;37.39
78337;BME280;67610;51.588;7.002;2023-06-14T04:24:56;100807.06;;;19.10;37.46
78337;BME280;67610;51.588;7.002;2023-06-14T04:27:23;100801.75;;;19.23;36.99
78337;BME280;67610;51.588;7.002;2023-06-14T04:29:54;100806.47;;;19.27;37.15
78337;BME280;67610;51.588;7.002;2023-06-14T04:32:28;100804.06;;;19.39;36.87
78337;BME280;67610;51.588;7.002;2023-06-14T04:34:59;100807.97;;;19.56;36.46
78337;BME280;67610;51.588;7.002;2023-06-14T04:37:27;100813.88;;;19.78;35.90
78337;BME280;67610;51.588;7.002;2023-06-14T04:39:54;100818.41;;;19.90;35.82
78337;BME280;67610;51.588;7.002;2023-06-14T04:42:21;100819.78;;;20.12;35.67
78337;BME280;67610;51.588;7.002;2023-06-14T04:44:50;100820.16;;;20.36;35.23
78337;BME280;67610;51.588;7.002;2023-06-14T04:47:16;100818.00;;;20.64;34.97
78337;BME280;67610;51.588;7.002;2023-06-14T04:49:42;100828.34;;;20.92;34.45
78337;BME280;67610;51.588;7.002;2023-06-14T04:52:07;100833.38;;;21.19;34.32
78337;BME280;67610;51.588;7.002;2023-06-14T04:54:35;100824.94;;;21.47;33.85
78337;BME280;67610;51.588;7.002;2023-06-14T04:57:04;100830.44;;;21.77;33.18
78337;BME280;67610;51.588;7.002;2023-06-14T04:59:30;100831.81;;;22.10;32.29
78337;BME280;67610;51.588;7.002;2023-06-14T05:01:58;100824.97;;;22.33;32.20
78337;BME280;67610;51.588;7.002;2023-06-14T05:04:25;100833.97;;;22.56;31.65
78337;BME280;67610;51.588;7.002;2023-06-14T05:06:52;100843.44;;;22.77;31.13
78337;BME280;67610;51.588;7.002;2023-06-14T05:09:19;100835.91;;;22.85;30.52
78337;BME280;67610;51.588;7.002;2023-06-14T05:11:45;100834.66;;;23.00;31.14
78337;BME280;67610;51.588;7.002;2023-06-14T05:14:11;100832.88;;;23.23;30.42
78337;BME280;67610;51.588;7.002;2023-06-14T05:16:37;100837.03;;;23.37;29.97
78337;BME280;67610;51.588;7.002;2023-06-14T05:19:03;100844.19;;;23.55;29.58
78337;BME280;67610;51.588;7.002;2023-06-14T05:21:29;100842.94;;;23.69;29.29
78337;BME280;67610;51.588;7.002;2023-06-14T05:23:55;100845.75;;;23.74;29.71
78337;BME280;67610;51.588;7.002;2023-06-14T05:26:21;100844.59;;;23.93;28.83
78337;BME280;67610;51.588;7.002;2023-06-14T05:28:48;100854.09;;;24.07;28.74
78337;BME280;67610;51.588;7.002;2023-06-14T05:31:15;100847.75;;;24.13;28.58
78337;BME280;67610;51.588;7.002;2023-06-14T05:33:40;100849.72;;;24.29;28.51
78337;BME280;67610;51.588;7.002;2023-06-14T05:36:05;100859.75;;;24.46;28.56
78337;BME280;67610;51.588;7.002;2023-06-14T05:38:31;100848.13;;;24.68;27.87
78337;BME280;67610;51.588;7.002;2023-06-14T05:40:56;100868.09;;;24.72;27.94
78337;BME280;67610;51.588;7.002;2023-06-14T05:43:21;100854.78;;;24.66;28.00
78337;BME280;67610;51.588;7.002;2023-06-14T05:45:47;100853.50;;;24.68;27.84
78337;BME280;67610;51.588;7.002;2023-06-14T05:48:12;100860.03;;;24.72;28.54
78337;BME280;67610;51.588;7.002;2023-06-14T05:50:37;100863.94;;;25.05;27.47
78337;BME280;67610;51.588;7.002;2023-06-14T05:53:03;100863.16;;;25.21;27.07
78337;BME280;67610;51.588;7.002;2023-06-14T05:55:28;100860.47;;;25.37;27.16
78337;BME280;67610;51.588;7.002;2023-06-14T05:57:53;100876.16;;;25.69;27.41
78337;BME280;67610;51.588;7.002;2023-06-14T06:00:19;100874.75;;;25.83;27.25
78337;BME280;67610;51.588;7.002;2023-06-14T06:02:45;100874.69;;;26.11;26.59
78337;BME280;67610;51.588;7.002;2023-06-14T06:05:14;100877.56;;;26.43;26.31
78337;BME280;67610;51.588;7.002;2023-06-14T06:07:41;100877.00;;;26.62;26.17
78337;BME280;67610;51.588;7.002;2023-06-14T06:10:07;100875.16;;;26.84;25.87
78337;BME280;67610;51.588;7.002;2023-06-14T06:12:33;100890.69;;;26.99;24.60
78337;BME280;67610;51.588;7.002;2023-06-14T06:14:59;100886.81;;;26.90;25.13
78337;BME280;67610;51.588;7.002;2023-06-14T06:17:25;100879.94;;;27.04;24.52
78337;BME280;67610;51.588;7.002;2023-06-14T06:19:51;100879.72;;;26.84;24.48
78337;BME280;67610;51.588;7.002;2023-06-14T06:22:17;100889.13;;;26.81;25.21
78337;BME280;67610;51.588;7.002;2023-06-14T06:24:42;100883.09;;;26.96;25.55
78337;BME280;67610;51.588;7.002;2023-06-14T06:27:07;100877.66;;;27.18;24.60
78337;BME280;67610;51.588;7.002;2023-06-14T06:29:33;100881.84;;;27.30;24.78
78337;BME280;67610;51.588;7.002;2023-06-14T06:31:59;100880.66;;;27.43;24.57
78337;BME280;67610;51.588;7.002;2023-06-14T06:34:24;100892.28;;;27.75;24.87
78337;BME280;67610;51.588;7.002;2023-06-14T06:36:50;100889.91;;;28.15;24.62
78337;BME280;67610;51.588;7.002;2023-06-14T06:39:15;100896.03;;;28.48;23.23
78337;BME280;67610;51.588;7.002;2023-06-14T06:41:41;100898.56;;;28.59;23.31
78337;BME280;67610;51.588;7.002;2023-06-14T06:44:07;100898.34;;;28.76;23.40
78337;BME280;67610;51.588;7.002;2023-06-14T06:46:33;100899.53;;;28.95;23.12
78337;BME280;67610;51.588;7.002;2023-06-14T06:48:59;100908.41;;;28.85;22.54
78337;BME280;67610;51.588;7.002;2023-06-14T06:51:24;100920.06;;;28.91;22.69
78337;BME280;67610;51.588;7.002;2023-06-14T06:53:53;100915.81;;;29.10;22.28
78337;BME280;67610;51.588;7.002;2023-06-14T06:56:21;100914.28;;;29.39;22.81
78337;BME280;67610;51.588;7.002;2023-06-14T06:58:50;100917.56;;;29.61;21.23
78337;BME280;67610;51.588;7.002;2023-06-14T07:01:16;100909.44;;;29.66;21.66
78337;BME280;67610;51.588;7.002;2023-06-14T07:03:42;100919.47;;;29.71;21.43
78337;BME280;67610;51.588;7.002;2023-06-14T07:06:07;100914.56;;;29.63;21.43
78337;BME280;67610;51.588;7.002;2023-06-14T07:08:33;100912.69;;;29.68;21.43
78337;BME280;67610;51.588;7.002;2023-06-14T07:10:58;100911.31;;;29.51;21.43
78337;BME280;67610;51.588;7.002;2023-06-14T07:13:23;100933.03;;;29.51;21.69
78337;BME280;67610;51.588;7.002;2023-06-14T07:15:49;100922.69;;;29.63;21.91
78337;BME280;67610;51.588;7.002;2023-06-14T07:18:14;100919.19;;;29.62;21.94
78337;BME280;67610;51.588;7.002;2023-06-14T07:20:40;100922.44;;;29.64;21.86
78337;BME280;67610;51.588;7.002;2023-06-14T07:23:05;100936.03;;;29.85;22.10
78337;BME280;67610;51.588;7.002;2023-06-14T07:25:31;100923.56;;;30.04;21.16
78337;BME280;67610;51.588;7.002;2023-06-14T07:27:56;100931.41;;;30.20;21.35
78337;BME280;67610;51.588;7.002;2023-06-14T07:30:22;100931.41;;;30.46;20.70
78337;BME280;67610;51.588;7.002;2023-06-14T07:32:51;100932.16;;;30.51;20.67
78337;BME280;67610;51.588;7.002;2023-06-14T07:35:17;100933.25;;;30.55;20.55
78337;BME280;67610;51.588;7.002;2023-06-14T07:37:43;100937.59;;;30.61;20.02
78337;BME280;67610;51.588;7.002;2023-06-14T07:40:09;100937.06;;;30.59;20.49
78337;BME280;67610;51.588;7.002;2023-06-14T07:42:35;100938.41;;;30.57;20.63
78337;BME280;67610;51.588;7.002;2023-06-14T07:45:02;100944.94;;;30.51;20.08
78337;BME280;67610;51.588;7.002;2023-06-14T07:47:27;100927.78;;;30.65;20.55
78337;BME280;67610;51.588;7.002;2023-06-14T07:49:52;100925.28;;;30.84;20.96
78337;BME280;67610;51.588;7.002;2023-06-14T07:52:18;100925.53;;;30.87;20.48
78337;BME280;67610;51.588;7.002;2023-06-14T07:54:43;100929.78;;;31.08;21.25
78337;BME280;67610;51.588;7.002;2023-06-14T07:57:08;100931.25;;;31.45;20.13
78337;BME280;67610;51.588;7.002;2023-06-14T07:59:34;100925.34;;;31.28;20.73
78337;BME280;67610;51.588;7.002;2023-06-14T08:02:00;100930.38;;;31.54;20.24
78337;BME280;67610;51.588;7.002;2023-06-14T08:04:25;100917.94;;;31.77;19.99
78337;BME280;67610;51.588;7.002;2023-06-14T08:06:51;100929.84;;;31.86;19.55
78337;BME280;67610;51.588;7.002;2023-06-14T08:09:16;100934.38;;;32.01;20.03
78337;BME280;67610;51.588;7.002;2023-06-14T08:11:42;100933.03;;;32.27;19.57
78337;BME280;67610;51.588;7.002;2023-06-14T08:14:08;100939.50;;;32.07;19.36
78337;BME280;67610;51.588;7.002;2023-06-14T08:16:33;100936.56;;;31.99;18.40
78337;BME280;67610;51.588;7.002;2023-06-14T08:18:59;100934.38;;;32.01;19.07
78337;BME280;67610;51.588;7.002;2023-06-14T08:21:24;100939.31;;;32.22;19.04
78337;BME280;67610;51.588;7.002;2023-06-14T08:23:54;100940.69;;;32.54;19.21
78337;BME280;67610;51.588;7.002;2023-06-14T08:26:20;100942.69;;;32.90;18.21
78337;BME280;67610;51.588;7.002;2023-06-14T08:28:46;100944.47;;;33.00;18.03
78337;BME280;67610;51.588;7.002;2023-06-14T08:31:11;100944.78;;;33.17;18.00
78337;BME280;67610;51.588;7.002;2023-06-14T08:33:37;100927.78;;;33.06;17.96
78337;BME280;67610;51.588;7.002;2023-06-14T08:36:05;100934.25;;;32.87;17.74
78337;BME280;67610;51.588;7.002;2023-06-14T08:38:30;100937.97;;;32.49;18.39
78337;BME280;67610;51.588;7.002;2023-06-14T08:41:00;100941.78;;;32.48;17.07
78337;BME280;67610;51.588;7.002;2023-06-14T08:43:26;100938.06;;;32.38;17.81
78337;BME280;67610;51.588;7.002;2023-06-14T08:45:58;100943.63;;;32.57;17.76
78337;BME280;67610;51.588;7.002;2023-06-14T08:48:26;100946.66;;;32.79;17.34
78337;BME280;67610;51.588;7.002;2023-06-14T08:50:57;100939.06;;;32.95;17.53
78337;BME280;67610;51.588;7.002;2023-06-14T08:53:28;100940.38;;;33.02;17.07
78337;BME280;67610;51.588;7.002;2023-06-14T08:55:58;100941.56;;;32.91;17.13
78337;BME280;67610;51.588;7.002;2023-06-14T08:58:27;100930.97;;;32.90;17.34
78337;BME280;67610;51.588;7.002;2023-06-14T09:00:55;100942.44;;;33.11;16.70
78337;BME280;67610;51.588;7.002;2023-06-14T09:03:21;100926.78;;;32.97;16.64
78337;BME280;67610;51.588;7.002;2023-06-14T09:05:47;100931.53;;;32.87;17.20
78337;BME280;67610;51.588;7.002;2023-06-14T09:08:13;100934.31;;;32.82;16.78
78337;BME280;67610;51.588;7.002;2023-06-14T09:10:39;100932.38;;;32.64;17.32
78337;BME280;67610;51.588;7.002;2023-06-14T09:13:06;100930.34;;;32.74;17.02
78337;BME280;67610;51.588;7.002;2023-06-14T09:15:32;100938.06;;;32.91;17.29
78337;BME280;67610;51.588;7.002;2023-06-14T09:17:58;100936.41;;;33.14;16.60
78337;BME280;67610;51.588;7.002;2023-06-14T09:20:26;100931.03;;;33.27;16.65
78337;BME280;67610;51.588;7.002;2023-06-14T09:22:51;100933.31;;;33.39;15.67
78337;BME280;67610;51.588;7.002;2023-06-14T09:25:18;100943.63;;;33.42;15.61
78337;BME280;67610;51.588;7.002;2023-06-14T09:27:45;100952.41;;;33.39;15.71
78337;BME280;67610;51.588;7.002;2023-06-14T09:30:12;100946.19;;;33.33;15.27
78337;BME280;67610;51.588;7.002;2023-06-14T09:32:38;100939.84;;;33.19;15.96
78337;BME280;67610;51.588;7.002;2023-06-14T09:35:08;100943.03;;;33.26;15.27
78337;BME280;67610;51.588;7.002;2023-06-14T09:37:34;100949.28;;;33.08;15.03
78337;BME280;67610;51.588;7.002;2023-06-14T09:40:00;100951.38;;;32.69;15.18
78337;BME280;67610;51.588;7.002;2023-06-14T09:42:26;100954.16;;;32.64;15.96
78337;BME280;67610;51.588;7.002;2023-06-14T09:44:54;100957.28;;;32.76;15.74
78337;BME280;67610;51.588;7.002;2023-06-14T09:47:20;100946.78;;;32.88;15.86
78337;BME280;67610;51.588;7.002;2023-06-14T09:49:46;100953.06;;;32.88;16.28
78337;BME280;67610;51.588;7.002;2023-06-14T09:52:20;100961.47;;;32.92;15.87
78337;BME280;67610;51.588;7.002;2023-06-14T09:54:47;100946.94;;;32.96;16.07
78337;BME280;67610;51.588;7.002;2023-06-14T09:57:15;100955.75;;;33.12;16.00
78337;BME280;67610;51.588;7.002;2023-06-14T09:59:45;100956.06;;;32.87;15.84
78337;BME280;67610;51.588;7.002;2023-06-14T10:05:17;100957.41;;;33.13;15.43
78337;BME280;67610;51.588;7.002;2023-06-14T10:10:11;100944.44;;;32.58;15.66
78337;BME280;67610;51.588;7.002;2023-06-14T10:12:37;100960.38;;;32.40;16.00
78337;BME280;67610;51.588;7.002;2023-06-14T10:15:03;100954.31;;;32.49;16.47
78337;BME280;67610;51.588;7.002;2023-06-14T10:17:40;100955.75;;;32.70;16.33
78337;BME280;67610;51.588;7.002;2023-06-14T10:22:51;100954.84;;;32.98;15.68
78337;BME280;67610;51.588;7.002;2023-06-14T10:25:30;100949.94;;;32.76;15.81
78337;BME280;67610;51.588;7.002;2023-06-14T10:28:22;100949.88;;;32.58;15.53
78337;BME280;67610;51.588;7.002;2023-06-14T10:31:11;100950.56;;;32.68;16.33
78337;BME280;67610;51.588;7.002;2023-06-14T10:33:49;100949.34;;;33.03;15.99
78337;BME280;67610;51.588;7.002;2023-06-14T10:36:25;100952.16;;;33.17;15.77
78337;BME280;67610;51.588;7.002;2023-06-14T10:39:07;100945.25;;;33.24;15.68
78337;BME280;67610;51.588;7.002;2023-06-14T10:41:40;100947.09;;;33.29;16.09
78337;BME280;67610;51.588;7.002;2023-06-14T10:46:52;100946.56;;;33.83;15.38
78337;BME280;67610;51.588;7.002;2023-06-14T10:49:43;100946.28;;;33.98;15.19
78337;BME280;67610;51.588;7.002;2023-06-14T10:52:20;100939.94;;;34.02;15.28
78337;BME280;67610;51.588;7.002;2023-06-14T10:57:29;100937.31;;;33.65;15.52
78337;BME280;67610;51.588;7.002;2023-06-14T10:59:56;100940.88;;;33.79;15.51
78337;BME280;67610;51.588;7.002;2023-06-14T11:05:14;100934.31;;;33.80;15.31
78337;BME280;67610;51.588;7.002;2023-06-14T11:10:40;100948.41;;;33.31;15.83
78337;BME280;67610;51.588;7.002;2023-06-14T11:13:09;100932.56;;;33.15;15.78
78337;BME280;67610;51.588;7.002;2023-06-14T11:15:38;100936.63;;;32.93;16.17
78337;BME280;67610;51.588;7.002;2023-06-14T11:18:08;100947.00;;;32.49;16.94
78337;BME280;67610;51.588;7.002;2023-06-14T11:20:35;100936.13;;;32.15;16.65
78337;BME280;67610;51.588;7.002;2023-06-14T11:23:02;100952.53;;;31.71;17.41
78337;BME280;67610;51.588;7.002;2023-06-14T11:25:27;100935.66;;;31.31;17.84
78337;BME280;67610;51.588;7.002;2023-06-14T11:27:56;100943.16;;;31.00;17.98
78337;BME280;67610;51.588;7.002;2023-06-14T11:30:22;100935.91;;;30.75;18.71
78337;BME280;67610;51.588;7.002;2023-06-14T11:32:49;100934.56;;;30.73;18.50
78337;BME280;67610;51.588;7.002;2023-06-14T11:35:16;100941.34;;;30.70;18.84
78337;BME280;67610;51.588;7.002;2023-06-14T11:37:42;100940.00;;;30.63;19.39
78337;BME280;67610;51.588;7.002;2023-06-14T11:40:10;100936.28;;;30.28;19.39
78337;BME280;67610;51.588;7.002;2023-06-14T11:42:37;100930.06;;;30.18;19.63
78337;BME280;67610;51.588;7.002;2023-06-14T11:45:04;100927.91;;;29.95;20.16
78337;BME280;67610;51.588;7.002;2023-06-14T11:47:34;100929.19;;;29.52;20.87
78337;BME280;67610;51.588;7.002;2023-06-14T11:50:01;100934.06;;;29.40;20.93
78337;BME280;67610;51.588;7.002;2023-06-14T11:52:26;100942.09;;;29.15;21.01
78337;BME280;67610;51.588;7.002;2023-06-14T11:54:53;100933.38;;;28.97;21.25
78337;BME280;67610;51.588;7.002;2023-06-14T11:57:19;100927.41;;;29.00;21.55
78337;BME280;67610;51.588;7.002;2023-06-14T11:59:46;100941.78;;;29.01;21.14
78337;BME280;67610;51.588;7.002;2023-06-14T12:02:18;100937.38;;;28.85;21.05
78337;BME280;67610;51.588;7.002;2023-06-14T12:04:46;100936.47;;;28.64;20.88
78337;BME280;67610;51.588;7.002;2023-06-14T12:07:17;100936.06;;;28.46;21.59
78337;BME280;67610;51.588;7.002;2023-06-14T12:12:23;100944.63;;;28.27;21.90
78337;BME280;67610;51.588;7.002;2023-06-14T12:14:51;100922.47;;;28.30;22.14
78337;BME280;67610;51.588;7.002;2023-06-14T12:17:17;100933.06;;;28.37;21.97
78337;BME280;67610;51.588;7.002;2023-06-14T12:19:43;100929.41;;;28.16;22.07
78337;BME280;67610;51.588;7.002;2023-06-14T12:22:10;100929.19;;;27.96;22.39
78337;BME280;67610;51.588;7.002;2023-06-14T12:24:36;100928.06;;;27.87;22.06
78337;BME280;67610;51.588;7.002;2023-06-14T12:27:01;100922.03;;;27.80;22.73
78337;BME280;67610;51.588;7.002;2023-06-14T12:29:31;100918.13;;;27.61;22.60
78337;BME280;67610;51.588;7.002;2023-06-14T12:31:57;100925.06;;;27.52;22.72
78337;BME280;67610;51.588;7.002;2023-06-14T12:34:26;100929.25;;;27.38;22.62
78337;BME280;67610;51.588;7.002;2023-06-14T12:36:53;100944.81;;;27.31;22.76
78337;BME280;67610;51.588;7.002;2023-06-14T12:39:19;100936.31;;;27.22;22.53
78337;BME280;67610;51.588;7.002;2023-06-14T12:41:45;100927.16;;;27.23;22.55
78337;BME280;67610;51.588;7.002;2023-06-14T12:44:11;100933.06;;;27.20;22.53
78337;BME280;67610;51.588;7.002;2023-06-14T12:46:37;100925.03;;;27.03;22.25
78337;BME280;67610;51.588;7.002;2023-06-14T12:49:04;100928.25;;;27.00;23.01
78337;BME280;67610;51.588;7.002;2023-06-14T12:51:30;100929.25;;;26.94;23.62
78337;BME280;67610;51.588;7.002;2023-06-14T12:53:56;100940.19;;;27.05;23.21
78337;BME280;67610;51.588;7.002;2023-06-14T12:56:21;100947.22;;;27.06;23.33
78337;BME280;67610;51.588;7.002;2023-06-14T12:58:46;100928.81;;;27.02;23.32
78337;BME280;67610;51.588;7.002;2023-06-14T13:01:12;100938.97;;;26.95;23.22
78337;BME280;67610;51.588;7.002;2023-06-14T13:03:37;100943.00;;;26.93;22.86
78337;BME280;67610;51.588;7.002;2023-06-14T13:06:03;100939.59;;;26.81;23.29
78337;BME280;67610;51.588;7.002;2023-06-14T13:08:29;100937.16;;;26.79;23.05
78337;BME280;67610;51.588;7.002;2023-06-14T13:10:55;100938.16;;;26.73;23.53
78337;BME280;67610;51.588;7.002;2023-06-14T13:13:21;100939.38;;;26.66;22.98